Terminal Aerodrome Forecast
Issued by NWS New Orleans/Baton Rouge, LA

Home | Current Version | Previous Version | Text Only | Print | Product List | Glossary On
Versions: 1 2 3 4 5 6 7 8 9 10 11 12 13 14 15 16 17 18 19 20 21 22 23 24
000
FTUS44 KLIX 151731
TAFNEW
TAF
KNEW 151731Z 1518/1618 21011G17KT P6SM VCTS BKN040CB BKN045
     FM152000 16008KT P6SM VCTS SCT035CB BKN100
     FM160000 16006KT P6SM SCT035 BKN150
     FM160200 16006KT P6SM FEW030 SCT250
     FM160800 19006KT P6SM FEW250
     FM161300 VRB04KT P6SM SCT200=

USA.gov is the U.S. government's official web portal to all federal, state and local government web resources and services.